x

Buoy B01 - Western Maine Shelf (44030) Wave Buoy

4:04pm - Tue 3rd Mar 2015 All times are EST. -5 hours from GMT.

  • Sig Wave height 2.0ft
  • Peak Period 11s
  • Wind
    16mph, 20mph gusts
  • Sea Temp 36°f
  • 空気 Temp 28°f
  • Sea Pressure 1021.8mb
  • Buoy B01 - Western Maine Shelf
  • Buoy B01 - Western Maine Shelf

More Historic Weather Station data

Upgrade to MSW Pro to gain access to the past 30 days of data for over 8000 Wavebouys and Weather Stations around the globe.

Join Pro

Comparision Forecast

View Surf forecast
   
Tue 03/03 4:04pm 2ft 11s 16 20 mph 1021.8mb 36f 28f
3:04pm 1ft 2s 11 16 mph 1023.4mb 36f 27f
2:04pm 1.3ft 11s 11 16 mph 1024.2mb 36f 26f
1:04pm 1ft 11s 11 13 mph 1025.6mb 37f 25f
12:04pm 1.3ft 11s 7 9 mph 1026.5mb 37f 24f
11:04am 1.3ft 11s 2 4 mph 1027.2mb 36f 25f
10:04am 1.3ft 11s 4 7 mph 1027.4mb 36f 22f
9:04am 1.6ft 11s 9 11 mph 1027.3mb 36f 21f
8:04am 1.3ft 3s 9 13 mph 1027mb 36f 21f
7:04am 2ft 3s 16 18 mph 1026.3mb 36f 21f
6:04am 2ft 3s 16 20 mph 1026.2mb 36f 21f
5:04am 1.6ft 3s 16 20 mph 1025.5mb 36f 22f
4:04am 2ft 3s 16 20 mph 1024.5mb 36f 23f
3:04am 2.5ft 3s 16 20 mph 1023.3mb 36f 24f
2:04am 2ft 3s 18 22 mph 1023mb 36f 24f
1:04am 2.5ft 3s 20 22 mph 1022.1mb 36f 25f
12:04am 2.5ft 4s 22 25 mph 1021.2mb 36f 26f
Mon 03/02 11:04pm 3ft 4s 25 31 mph 1020.3mb 36f 27f
10:04pm 3.5ft 4s 27 34 mph 1019.2mb 36f 28f
9:04pm 3ft 4s 25 29 mph 1018.2mb 36f 29f
8:04pm 3ft 4s 25 29 mph 1017.2mb 36f 29f
7:04pm 3.5ft 4s 25 29 mph 1016.8mb 36f 30f
6:04pm 3.5ft 4s 27 31 mph 1015.1mb 36f 31f
5:04pm 3.5ft 4s 25 29 mph 1013.4mb 36f 33f
4:04pm 4ft 4s 20 25 mph 1012.6mb 36f 33f
3:04pm 4ft 4s 25 34 mph 1012.3mb 36f 32f
2:04pm 3.5ft 5s 25 34 mph 1011.6mb 36f 33f
1:04pm 3.5ft 4s 22 29 mph 1011mb 36f 33f
12:04pm 3.5ft 4s 22 29 mph 1011mb 36f 32f
11:04am 2.5ft 3s 27 31 mph 1010.9mb 36f 32f
10:04am 2.5ft 3s 20 25 mph 1010.7mb 36f 30f
9:04am 2.5ft 3s 20 22 mph 1010.5mb 36f 29f
8:04am 2ft 3s 16 18 mph 1010.9mb 36f 28f
7:04am 2.5ft 3s 16 20 mph 1010.9mb 36f 28f
6:04am 2.5ft 5s 16 20 mph 1011.3mb 36f 28f
5:04am 2.5ft 5s 13 16 mph 1012.4mb 36f 26f
4:04am 2.5ft 5s 16 18 mph 1012.5mb 36f 27f
3:04am 2.5ft 5s 11 13 mph 1013.4mb 36f 26f
2:04am 2.5ft 5s 16 18 mph 1014.7mb 36f 27f
1:04am 3ft 5s 13 18 mph 1016.2mb 36f 27f
12:04am 2.5ft 5s 16 20 mph 1017.6mb 36f 28f
Sun 03/01 11:04pm 3.5ft 5s 18 20 mph 1018.9mb 36f 28f
10:04pm 3.5ft 5s 20 25 mph 1020.1mb 36f 29f
9:04pm 4ft 5s 18 22 mph 1021.8mb 36f 29f
8:04pm 3.5ft 5s 20 25 mph 1023.1mb 36f 29f
7:04pm 3.5ft 5s 18 22 mph 1024.3mb 36f 29f
6:04pm 4ft 5s 20 25 mph 1025.7mb 36f 28f
5:04pm 3.5ft 4s 22 27 mph 1026.9mb 36f 30f
4:04pm 2.5ft 4s 20 25 mph 1028.4mb 36f 29f
3:04pm 1.6ft 3s 18 22 mph 1029.4mb 36f 30f
2:04pm 2ft 8s 13 16 mph 1030.7mb 36f 29f
1:04pm 1.6ft 8s 13 18 mph 1031.8mb 36f 28f
12:04pm 1.3ft 11s 9 11 mph 1033.2mb 36f 26f
11:04am 1.3ft 11s 2 7 mph 1035.1mb 36f 25f
10:04am 1.3ft 11s 2
mph
1035.4mb 36f 25f
9:04am 1.3ft 11s 4 7 mph 1036.3mb 36f 24f
8:04am 1.3ft 8s 7 9 mph 1037.1mb 36f 23f
7:04am 1.6ft 8s 2 4 mph 1036.8mb 36f 23f
6:04am 2ft 8s 7 9 mph 1036.7mb 36f 23f
5:04am 1.6ft 11s 7 9 mph 1036.9mb 36f 24f
4:04am 2ft 8s 7 9 mph 1037.3mb 36f 24f
3:04am  -   -  11 13 mph 1037.4mb 36f 25f
2:04am 2.5ft 11s 9 13 mph 1037.5mb 36f 26f
1:04am 2.5ft 11s 13 16 mph 1038.1mb 36f 26f
12:04am 2.5ft 11s 16 18 mph 1037.3mb 36f 27f
Sat 02/28 11:04pm 2.5ft 11s 9 11 mph 1037.3mb 36f 29f
10:04pm 2.5ft 11s 9
mph
1037.6mb 36f 29f
9:04pm 2.5ft 11s 11 13 mph 1037.5mb 37f 30f
8:04pm  -   -  13 16 mph 1037.2mb 37f 31f
7:04pm 2.5ft 11s 13 16 mph 1037mb 37f 31f
5:04pm 2.5ft 11s 11 13 mph 1036.5mb 37f 30f
4:04pm 3ft 8s 13 16 mph 1036.8mb 37f 28f
3:04pm 2.5ft 11s 11 13 mph 1037.1mb 37f 25f
2:04pm 3ft 11s 9 11 mph 1037.7mb 37f 24f
1:04pm 3.5ft 11s 4 9 mph 1038.3mb 37f 23f
12:04pm 3.5ft 11s 4 7 mph 1039mb 37f 22f
11:04am 3ft 11s 4 9 mph 1039.2mb 37f 21f
10:04am 2.5ft 11s 7 9 mph 1039.1mb 37f 19f
9:04am 4ft 11s 7 9 mph 1038.6mb 37f 19f
8:04am 3.5ft 11s 7 11 mph 1038.1mb 37f 18f
7:04am 3.5ft 11s 9 13 mph 1037.1mb 37f 18f
6:04am 3ft 11s 7 11 mph 1036.2mb 36f 18f
5:04am  -   -  11 16 mph 1035.6mb 36f 18f
4:04am 3ft 11s 16 18 mph 1034.4mb 36f 19f
3:04am 4ft 11s 11 16 mph 1033.9mb 36f 18f
2:04am 3.5ft 11s 16 20 mph 1033.6mb 36f 21f
1:04am 4ft 11s 16 18 mph 1032.8mb 36f 22f
12:04am 4.5ft 11s 18 25 mph 1032mb 36f 23f
Fri 02/27 11:04pm 4.5ft 11s 18 22 mph 1031.4mb 36f 23f